Currently 62°F in San Jacinto, California, USA
62°F
62°F / 52°F
14 mph SW
0.00"
Wednesday, May 22, 2019 1:56 PM PDT

San Jacinto, California Weather Summary
Last 36 Hours

Temperature Winds Hourly Humidity Dewpoint
Time Report Norm Report Norm Max Gusts Precip. Rpt. Norm Rpt. Norm Pressure
1Wed 01:56 PM  61.9°F  74°F  14 mph SW  4 mph  22 mph  0.00"  50%  40%  42°F  47°F  29.71"
2Wed 01:35 PM  62.2°F  73°F  11 mph SW  3 mph  26 mph  ----  51%  41%  43°F  47°F  29.70"
Wed 01:00 PM  61.0°F  72°F  13 mph W  3 mph  20 mph  0.00"  51%  43%  42°F  48°F  29.71"
Wed 12:00 PM  59.4°F  70°F  12 mph SW  2 mph  20 mph  0.00"  55%  48%  43°F  48°F  29.72"
Wed 11:00 AM  59.2°F  67°F  10 mph SW  2 mph  18 mph  0.00"  61%  54%  45°F  49°F  29.72"
Wed 10:00 AM  57.7°F  64°F  9 mph SW  2 mph  13 mph  0.00"  62%  61%  44°F  49°F  29.72"
Wed 09:00 AM  56.8°F  61°F  3 mph S  2 mph  14 mph  0.00"  70%  68%  47°F  50°F  29.73"
Wed 08:00 AM  54.1°F  58°F  6 mph SW  1 mph  11 mph  0.00"  80%  75%  48°F  49°F  29.73"
Wed 07:00 AM  52.3°F  55°F  5 mph SW  1 mph  9 mph  0.00"  84%  79%  47°F  49°F  29.72"
Wed 06:00 AM  51.8°F  54°F  2 mph SW  1 mph  11 mph  0.00"  85%  82%  47°F  48°F  29.72"
Wed 05:00 AM  51.6°F  55°F  2 mph SW  1 mph  10 mph  0.00"  84%  81%  47°F  49°F  29.70"
Wed 04:00 AM  52.0°F  55°F  3 mph S  1 mph  11 mph  0.00"  83%  81%  47°F  49°F  29.71"
3Wed 03:29 AM  51.6°F  55°F  4 mph S  1 mph  11 mph  ----  83%  81%  46°F  49°F  29.72"
Wed 03:00 AM  52.2°F  55°F  4 mph SW  1 mph  11 mph  0.00"  83%  80%  47°F  49°F  29.72"
Wed 02:00 AM  53.1°F  56°F  4 mph S  2 mph  10 mph  0.00"  83%  79%  48°F  49°F  29.74"
Wed 01:00 AM  53.2°F  57°F  3 mph SW  1 mph  11 mph  0.00"  81%  77%  47°F  50°F  29.75"
Wed 12:00 AM  53.1°F  58°F  4 mph S  1 mph  11 mph  0.00"  81%  75%  47°F  50°F  29.77"
Tue 11:00 PM  53.1°F  59°F  4 mph S  1 mph  13 mph  0.00"  81%  73%  47°F  50°F  29.78"
Tue 10:00 PM  53.4°F  61°F  7 mph SW  2 mph  20 mph  0.00"  78%  69%  46°F  50°F  29.79"
Tue 09:00 PM  54.3°F  63°F  10 mph SW  2 mph  20 mph  0.00"  73%  64%  45°F  50°F  29.78"
Tue 08:00 PM  55.6°F  65°F  11 mph SW  3 mph  20 mph  0.00"  68%  58%  45°F  49°F  29.77"
Tue 07:00 PM  57.0°F  69°F  9 mph SW  5 mph  21 mph  0.00"  62%  51%  44°F  49°F  29.77"
Tue 06:00 PM  59.5°F  71°F  11 mph SW  6 mph  26 mph  0.00"  56%  46%  43°F  49°F  29.77"
Tue 05:00 PM  61.2°F  74°F  12 mph SW  6 mph  25 mph  0.00"  55%  42%  44°F  48°F  29.78"
Tue 04:00 PM  62.4°F  75°F  16 mph SW  5 mph  24 mph  0.00"  53%  40%  44°F  48°F  29.80"
Tue 03:00 PM  62.8°F  75°F  10 mph S  5 mph  26 mph  0.00"  52%  39%  44°F  47°F  29.82"
Tue 02:00 PM  61.3°F  74°F  11 mph SW  4 mph  25 mph  0.00"  58%  40%  46°F  47°F  29.84"
Tue 01:00 PM  61.0°F  72°F  8 mph S  3 mph  23 mph  0.00"  59%  43%  46°F  47°F  29.85"
Tue 12:00 PM  61.3°F  70°F  13 mph S  2 mph  17 mph  0.00"  61%  48%  47°F  48°F  29.87"
Tue 11:00 AM  60.1°F  67°F  10 mph SW  2 mph  18 mph  0.00"  66%  53%  48°F  49°F  29.89"
Tue 10:00 AM  57.0°F  64°F  9 mph S  2 mph  17 mph  0.00"  74%  60%  48°F  49°F  29.91"
Tue 09:00 AM  54.1°F  61°F  4 mph S  2 mph  10 mph  0.00"  81%  67%  48°F  50°F  29.92"
Tue 08:00 AM  52.2°F  58°F  3 mph S  1 mph  9 mph  0.00"  86%  74%  48°F  49°F  29.93"
Tue 07:00 AM  52.0°F  55°F  6 mph S  1 mph  5 mph  0.00"  84%  79%  47°F  49°F  29.95"
Tue 06:00 AM  52.0°F  54°F  3 mph SW  1 mph  6 mph  0.00"  84%  81%  47°F  48°F  29.95"
Tue 05:00 AM  52.3°F  55°F  1 mph SW  1 mph  7 mph  0.00"  82%  80%  47°F  48°F  29.94"
Tue 04:00 AM  52.0°F  55°F  2 mph S  1 mph  7 mph  0.00"  85%  80%  47°F  49°F  29.95"
Tue 03:00 AM  52.2°F  56°F  3 mph SW  1 mph  7 mph  0.00"  85%  79%  48°F  49°F  29.96"
Tue 02:00 AM  52.5°F  56°F  3 mph SW  2 mph  8 mph  0.00"  83%  78%  47°F  49°F  29.97"

  1. Current weather data. No green row appears if the current weather data is also the high or low for the current day.
  2. High temperature for the current day.
  3. Low temperature for the current day.

The San Jacinto, California weather pages are a service of WeatherCurrents. San Jacinto is located in the heart of the San Jacinto Valley, near Hemet, the Soboba Casino, and at the foot of the San Jacinto Mountains.
Copyright ©2019  WeatherCurrents. All rights reserved. - Submit questions and comments - Privacy Policy

This page automatically refreshes every 10 minutes.